createdAt,value
2018-07-19T00:00:02.098Z,19.96
2018-07-19T00:02:31.009Z,19.99
2018-07-19T00:04:59.479Z,20.01
2018-07-19T00:07:29.855Z,19.88
2018-07-19T00:09:58.445Z,19.86
2018-07-19T00:12:27.035Z,19.83
2018-07-19T00:14:56.030Z,19.74
2018-07-19T00:17:24.878Z,19.69
2018-07-19T00:19:53.951Z,19.69
2018-07-19T00:22:23.573Z,19.64
2018-07-19T00:24:52.085Z,19.60
2018-07-19T00:27:20.769Z,19.62
2018-07-19T00:29:49.321Z,19.56
2018-07-19T00:32:17.800Z,19.50
2018-07-19T00:34:47.243Z,19.56
2018-07-19T00:37:17.095Z,19.58
2018-07-19T00:39:45.688Z,19.64
2018-07-19T00:42:14.540Z,19.70
2018-07-19T00:44:43.077Z,19.54
2018-07-19T00:47:11.761Z,19.41
2018-07-19T00:49:41.956Z,19.35
2018-07-19T00:52:10.762Z,19.13
2018-07-19T00:54:39.327Z,18.93
2018-07-19T00:57:08.045Z,18.75
2018-07-19T00:59:37.739Z,18.59
2018-07-19T01:02:07.576Z,18.63
2018-07-19T01:04:37.583Z,18.67
2018-07-19T01:07:06.756Z,18.61
2018-07-19T01:09:35.252Z,18.52
2018-07-19T01:12:05.017Z,18.61
2018-07-19T01:14:33.515Z,18.68
2018-07-19T01:17:02.758Z,18.68
2018-07-19T01:19:31.846Z,18.64
2018-07-19T01:22:00.338Z,18.64
2018-07-19T01:24:29.209Z,18.70
2018-07-19T01:26:59.336Z,18.72
2018-07-19T01:29:27.985Z,18.75
2018-07-19T01:31:59.589Z,18.54
2018-07-19T01:34:28.754Z,18.48
2018-07-19T01:36:57.277Z,18.55
2018-07-19T01:39:25.776Z,18.52
2018-07-19T01:42:32.140Z,18.55
2018-07-19T01:45:00.979Z,18.55
2018-07-19T01:47:30.728Z,18.61
2018-07-19T01:49:59.592Z,18.59
2018-07-19T01:52:28.908Z,18.49
2018-07-19T01:54:57.466Z,18.49
2018-07-19T01:57:26.169Z,18.43
2018-07-19T01:59:54.734Z,18.49
2018-07-19T02:02:24.354Z,18.53
2018-07-19T02:04:53.161Z,18.53
2018-07-19T02:07:22.341Z,18.58
2018-07-19T02:09:50.828Z,18.66
2018-07-19T02:12:20.792Z,18.66
2018-07-19T02:14:49.449Z,18.61
2018-07-19T02:17:18.741Z,18.61
2018-07-19T02:19:47.281Z,18.63
2018-07-19T02:22:17.047Z,18.65
2018-07-19T02:24:46.221Z,18.68
2018-07-19T02:27:15.315Z,18.52
2018-07-19T02:29:44.561Z,18.45
2018-07-19T02:32:14.024Z,18.40
2018-07-19T02:34:43.149Z,18.50
2018-07-19T02:37:12.242Z,18.61
2018-07-19T02:39:40.864Z,18.60
2018-07-19T02:42:09.420Z,18.50
2018-07-19T02:44:37.962Z,18.44
2018-07-19T02:47:06.704Z,18.48
2018-07-19T02:49:36.096Z,18.47
2018-07-19T02:52:04.638Z,18.51
2018-07-19T02:54:35.491Z,18.40
2018-07-19T02:57:04.207Z,18.33
2018-07-19T02:59:33.905Z,18.13
2018-07-19T03:02:02.518Z,18.06
2018-07-19T03:04:31.000Z,17.97
2018-07-19T03:07:00.514Z,17.76
2018-07-19T03:09:29.073Z,17.73
2018-07-19T03:11:57.608Z,17.65
2018-07-19T03:14:26.116Z,17.76
2018-07-19T03:16:54.729Z,17.82
2018-07-19T03:19:23.885Z,17.84
2018-07-19T03:21:52.647Z,17.83
2018-07-19T03:24:21.172Z,17.82
2018-07-19T03:26:49.709Z,17.86
2018-07-19T03:29:18.193Z,17.80
2018-07-19T03:31:46.777Z,17.73
2018-07-19T03:34:15.417Z,17.68
2018-07-19T03:36:44.230Z,17.57
2018-07-19T03:39:12.932Z,17.50
2018-07-19T03:41:41.756Z,17.39
2018-07-19T03:44:10.244Z,17.29
2018-07-19T03:46:38.800Z,17.32
2018-07-19T03:49:08.917Z,17.31
2018-07-19T03:51:37.404Z,17.33
2018-07-19T03:54:05.992Z,17.38
2018-07-19T03:56:34.933Z,17.42
2018-07-19T03:59:03.700Z,17.31
2018-07-19T04:01:32.752Z,17.38
2018-07-19T04:04:01.335Z,17.36
2018-07-19T04:06:30.888Z,17.45
2018-07-19T04:09:00.188Z,17.53
2018-07-19T04:11:28.736Z,17.51
2018-07-19T04:13:57.609Z,17.43
2018-07-19T04:16:26.267Z,17.30
2018-07-19T04:18:55.015Z,17.32
2018-07-19T04:21:24.381Z,17.30
2018-07-19T04:23:53.331Z,17.22
2018-07-19T04:26:23.246Z,17.22
2018-07-19T04:28:52.012Z,17.22
2018-07-19T04:31:21.702Z,17.27
2018-07-19T04:33:51.238Z,17.36
2018-07-19T04:36:19.732Z,17.46
2018-07-19T04:38:48.418Z,17.41
2018-07-19T04:41:17.526Z,17.42
2018-07-19T04:43:46.967Z,17.53
2018-07-19T04:46:15.593Z,17.60
2018-07-19T04:48:44.105Z,17.49
2018-07-19T04:51:12.590Z,17.42
2018-07-19T04:53:41.735Z,17.40
2018-07-19T04:56:10.350Z,17.33
2018-07-19T04:58:39.764Z,17.33
2018-07-19T05:01:08.407Z,17.36
2018-07-19T05:03:37.147Z,17.47
2018-07-19T05:06:07.511Z,17.45
2018-07-19T05:08:36.093Z,17.41
2018-07-19T05:11:04.621Z,17.43
2018-07-19T05:13:33.205Z,17.45
2018-07-19T05:16:01.932Z,17.38
2018-07-19T05:18:31.171Z,17.40
2018-07-19T05:21:01.458Z,17.43
2018-07-19T05:23:30.218Z,17.42
2018-07-19T05:25:59.206Z,17.48
2018-07-19T05:28:28.266Z,17.50
2018-07-19T05:30:58.275Z,17.57
2018-07-19T05:33:27.234Z,17.58
2018-07-19T05:35:57.845Z,17.52
2018-07-19T05:38:27.319Z,17.52
2018-07-19T05:40:56.177Z,17.56
2018-07-19T05:43:26.094Z,17.72
2018-07-19T05:45:57.421Z,17.75
2018-07-19T05:48:26.906Z,17.74
2018-07-19T05:50:56.183Z,17.79
2018-07-19T05:53:25.006Z,17.86
2018-07-19T05:55:57.340Z,17.83
2018-07-19T05:58:26.642Z,17.86
2018-07-19T06:00:56.430Z,17.98
2018-07-19T06:03:26.990Z,18.02
2018-07-19T06:05:56.193Z,18.03
2018-07-19T06:08:25.116Z,18.04
2018-07-19T06:10:54.453Z,18.05
2018-07-19T06:13:24.297Z,18.02
2018-07-19T06:15:53.734Z,18.03
2018-07-19T06:18:22.555Z,18.04
2018-07-19T06:20:51.345Z,18.17
2018-07-19T06:23:20.192Z,18.24
2018-07-19T06:25:48.852Z,18.28
2018-07-19T06:28:18.254Z,18.31
2018-07-19T06:30:48.232Z,18.45
2018-07-19T06:33:16.813Z,18.48
2018-07-19T06:35:46.649Z,18.57
2018-07-19T06:38:15.379Z,18.66
2018-07-19T06:40:44.170Z,18.77
2018-07-19T06:43:12.874Z,18.84
2018-07-19T06:45:41.808Z,18.87
2018-07-19T06:48:11.196Z,18.95
2018-07-19T06:50:39.979Z,19.03
2018-07-19T06:53:08.561Z,19.14
2018-07-19T06:55:37.455Z,19.15
2018-07-19T06:58:06.290Z,19.23
2018-07-19T07:00:35.517Z,19.26
2018-07-19T07:03:04.575Z,19.39
2018-07-19T07:05:33.165Z,19.50
2018-07-19T07:08:02.108Z,19.56
2018-07-19T07:10:30.755Z,19.60
2018-07-19T07:12:59.449Z,19.64
2018-07-19T07:15:28.226Z,19.71
2018-07-19T07:17:57.138Z,19.72
2018-07-19T07:20:26.362Z,19.77
2018-07-19T07:22:55.950Z,19.80
2018-07-19T07:25:24.625Z,19.89
2018-07-19T07:27:53.150Z,19.98
2018-07-19T07:30:21.753Z,19.99
2018-07-19T07:32:50.260Z,20.05
2018-07-19T07:35:18.853Z,20.12
2018-07-19T07:37:49.013Z,20.20
2018-07-19T07:40:17.585Z,20.30
2018-07-19T07:42:46.403Z,20.36
2018-07-19T07:45:15.198Z,20.39
2018-07-19T07:47:43.981Z,20.44
2018-07-19T07:50:13.338Z,20.44
2018-07-19T07:52:41.902Z,20.46
2018-07-19T07:55:11.318Z,20.56
2018-07-19T07:57:39.916Z,20.66
2018-07-19T08:00:09.445Z,20.75
2018-07-19T08:02:38.024Z,20.86
2018-07-19T08:05:06.601Z,20.94
2018-07-19T08:07:35.391Z,21.00
2018-07-19T08:10:03.984Z,21.05
2018-07-19T08:12:33.348Z,21.16
2018-07-19T08:15:03.816Z,21.24
2018-07-19T08:17:32.395Z,21.31
2018-07-19T08:20:02.646Z,21.36
2018-07-19T08:22:31.291Z,21.38
2018-07-19T08:25:00.153Z,21.41
2018-07-19T08:27:28.860Z,21.42
2018-07-19T08:29:57.535Z,21.50
2018-07-19T08:32:26.231Z,21.47
2018-07-19T08:34:55.531Z,21.50
2018-07-19T08:37:24.069Z,21.54
2018-07-19T08:39:52.605Z,21.63
2018-07-19T08:42:21.453Z,21.72
2018-07-19T08:44:50.207Z,21.78
2018-07-19T08:47:18.757Z,21.83
2018-07-19T08:49:48.276Z,21.86
2018-07-19T08:52:18.451Z,21.93
2018-07-19T08:54:47.506Z,21.98
2018-07-19T08:57:16.352Z,22.04
2018-07-19T08:59:44.992Z,22.11
2018-07-19T09:02:13.571Z,22.14
2018-07-19T09:04:43.291Z,22.19
2018-07-19T09:07:11.928Z,22.22
2018-07-19T09:09:40.438Z,22.24
2018-07-19T09:12:10.759Z,22.32
2018-07-19T09:14:39.322Z,22.40
2018-07-19T09:17:08.443Z,22.47
2018-07-19T09:19:39.108Z,22.55
2018-07-19T09:22:08.399Z,22.62
2018-07-19T09:24:37.002Z,22.69
2018-07-19T09:27:06.720Z,22.77
2018-07-19T09:29:36.684Z,22.87
2018-07-19T09:32:06.639Z,22.96
2018-07-19T09:34:36.081Z,23.05
2018-07-19T09:37:05.920Z,23.09
2018-07-19T09:39:34.460Z,23.16
2018-07-19T09:42:03.409Z,23.23
2018-07-19T09:44:31.963Z,23.32
2018-07-19T09:47:00.909Z,23.42
2018-07-19T09:49:29.468Z,23.48
2018-07-19T09:51:58.803Z,23.58
2018-07-19T09:54:38.576Z,23.63
2018-07-19T09:57:07.225Z,23.72
2018-07-19T09:59:35.721Z,23.73
2018-07-19T10:02:04.386Z,23.78
2018-07-19T10:04:33.017Z,23.84
2018-07-19T10:07:01.577Z,23.94
2018-07-19T10:09:30.187Z,24.01
2018-07-19T10:12:00.861Z,24.01
2018-07-19T10:14:29.870Z,24.13
2018-07-19T10:16:59.129Z,24.19
2018-07-19T10:19:27.815Z,24.25
2018-07-19T10:21:56.394Z,24.25
2018-07-19T10:24:25.709Z,24.24
2018-07-19T10:26:54.583Z,24.29
2018-07-19T10:29:23.685Z,24.25
2018-07-19T10:31:52.459Z,24.29
2018-07-19T10:34:21.070Z,24.42
2018-07-19T10:36:49.611Z,24.56
2018-07-19T10:39:18.879Z,24.46
2018-07-19T10:41:47.400Z,24.38
2018-07-19T10:44:17.651Z,24.33
2018-07-19T10:46:46.221Z,24.35
2018-07-19T10:49:14.828Z,24.46
2018-07-19T10:51:43.889Z,24.63
2018-07-19T10:54:12.530Z,24.78
2018-07-19T10:56:41.614Z,24.84
2018-07-19T10:59:10.182Z,24.89
2018-07-19T11:01:38.692Z,24.97
2018-07-19T11:04:07.198Z,25.02
2018-07-19T11:06:35.906Z,25.04
2018-07-19T11:09:07.718Z,25.16
2018-07-19T11:11:38.627Z,25.18
2018-07-19T11:14:07.308Z,25.24
2018-07-19T11:23:24.562Z,25.18
2018-07-19T11:25:53.517Z,25.21
2018-07-19T11:28:24.276Z,25.20
2018-07-19T11:30:54.446Z,25.25
2018-07-19T11:33:24.372Z,25.36
2018-07-19T11:35:54.507Z,25.50
2018-07-19T11:38:23.251Z,25.55
2018-07-19T11:40:52.944Z,25.73
2018-07-19T11:43:21.717Z,25.92
2018-07-19T11:45:56.608Z,25.97
2018-07-19T11:48:27.107Z,25.95
2018-07-19T11:50:56.407Z,25.93
2018-07-19T11:53:26.478Z,25.96
2018-07-19T11:55:55.977Z,26.00
2018-07-19T11:58:25.842Z,26.01
2018-07-19T12:00:58.156Z,26.15
2018-07-19T12:03:26.711Z,26.41
2018-07-19T12:05:56.184Z,26.67
2018-07-19T12:08:25.101Z,26.75
2018-07-19T12:10:56.312Z,26.95
2018-07-19T12:13:27.177Z,27.15
2018-07-19T12:15:57.196Z,27.20
2018-07-19T12:18:26.479Z,27.18
2018-07-19T12:20:55.143Z,26.78
2018-07-19T12:23:25.346Z,26.69
2018-07-19T12:25:53.987Z,26.75
2018-07-19T12:28:22.547Z,26.91
2018-07-19T12:30:51.892Z,27.07
2018-07-19T12:33:20.938Z,26.81
2018-07-19T12:35:49.444Z,26.68
2018-07-19T12:38:17.983Z,26.77
2018-07-19T12:40:46.631Z,26.88
2018-07-19T12:43:15.696Z,26.86
2018-07-19T12:45:44.260Z,26.94
2018-07-19T12:48:12.800Z,27.19
2018-07-19T12:50:43.048Z,27.42
2018-07-19T12:53:11.542Z,27.75
2018-07-19T12:55:40.690Z,27.90
2018-07-19T12:58:11.188Z,28.03
2018-07-19T13:00:39.825Z,27.83
2018-07-19T13:03:08.454Z,27.80
2018-07-19T13:05:37.052Z,28.03
2018-07-19T13:08:05.694Z,27.78
2018-07-19T13:10:35.094Z,27.47
2018-07-19T13:13:04.571Z,27.26
2018-07-19T13:15:33.165Z,27.12
2018-07-19T13:18:03.543Z,27.22
2018-07-19T13:20:32.229Z,27.38
2018-07-19T13:23:01.038Z,27.64
2018-07-19T13:25:29.647Z,27.92
2018-07-19T13:27:59.113Z,28.03
2018-07-19T13:30:27.689Z,28.16
2018-07-19T13:32:56.351Z,28.45
2018-07-19T13:35:25.093Z,28.75
2018-07-19T13:37:53.746Z,29.01
2018-07-19T13:40:24.184Z,29.07
2018-07-19T13:42:52.729Z,28.79
2018-07-19T13:45:21.690Z,28.74
2018-07-19T13:47:50.396Z,28.59
2018-07-19T13:50:20.280Z,28.17
2018-07-19T13:52:59.929Z,27.98
2018-07-19T13:55:29.401Z,28.24
2018-07-19T13:57:59.468Z,28.03
2018-07-19T14:00:28.666Z,27.87
2018-07-19T14:03:00.778Z,27.72
2018-07-19T14:05:31.418Z,27.50
2018-07-19T14:08:00.517Z,27.35
2018-07-19T14:10:29.249Z,27.12
2018-07-19T14:12:57.937Z,27.02
2018-07-19T14:15:27.558Z,27.35
2018-07-19T14:17:56.433Z,27.78
2018-07-19T14:20:25.077Z,27.77
2018-07-19T14:22:55.295Z,28.08
2018-07-19T14:25:23.912Z,28.15
2018-07-19T14:27:52.518Z,28.11
2018-07-19T14:30:21.065Z,28.45
2018-07-19T14:32:49.675Z,28.89
2018-07-19T14:35:18.271Z,29.25
2018-07-19T14:37:47.426Z,29.46
2018-07-19T14:40:16.378Z,29.47
2018-07-19T14:42:44.932Z,29.36
2018-07-19T14:45:13.674Z,29.48
2018-07-19T14:47:42.267Z,29.78
2018-07-19T14:50:10.949Z,30.04
2018-07-19T14:52:39.868Z,30.17
2018-07-19T14:55:09.008Z,29.84
2018-07-19T14:57:38.138Z,29.75
2018-07-19T15:00:08.787Z,29.35
2018-07-19T15:02:38.151Z,28.68
2018-07-19T15:05:06.776Z,28.45
2018-07-19T15:07:36.192Z,28.40
2018-07-19T15:10:06.332Z,28.66
2018-07-19T15:12:36.641Z,29.02
2018-07-19T15:15:05.830Z,29.16
2018-07-19T15:17:35.916Z,28.91
2018-07-19T15:20:05.742Z,28.53
2018-07-19T15:22:34.489Z,28.37
2018-07-19T15:25:03.627Z,28.60
2018-07-19T15:27:32.805Z,29.08
2018-07-19T15:30:01.798Z,29.61
2018-07-19T15:32:31.038Z,29.73
2018-07-19T15:35:02.228Z,29.53
2018-07-19T15:37:30.709Z,29.30
2018-07-19T15:40:00.342Z,29.09
2018-07-19T15:42:29.865Z,29.46
2018-07-19T15:45:00.045Z,29.74
2018-07-19T15:47:28.598Z,30.08
2018-07-19T15:49:57.852Z,30.45
2018-07-19T15:52:26.711Z,30.89
2018-07-19T15:54:55.176Z,30.83
2018-07-19T15:57:25.206Z,30.73
2018-07-19T15:59:54.000Z,30.76
2018-07-19T16:02:22.778Z,30.96
2018-07-19T16:04:53.598Z,31.00
2018-07-19T16:07:22.298Z,31.18
2018-07-19T16:09:50.831Z,31.20
2018-07-19T16:12:19.459Z,30.91
2018-07-19T16:14:48.068Z,30.65
2018-07-19T16:17:16.651Z,30.25
2018-07-19T16:19:45.484Z,30.28
2018-07-19T16:22:14.823Z,30.45
2018-07-19T16:24:43.322Z,30.44
2018-07-19T16:27:13.625Z,30.76
2018-07-19T16:29:42.176Z,30.48
2018-07-19T16:32:11.048Z,30.26
2018-07-19T16:34:39.654Z,30.17
2018-07-19T16:37:09.055Z,29.88
2018-07-19T16:39:37.666Z,30.05
2018-07-19T16:42:06.319Z,30.22
2018-07-19T16:44:35.243Z,30.26
2018-07-19T16:47:04.025Z,30.15
2018-07-19T16:49:33.903Z,30.08
2018-07-19T16:52:03.418Z,29.58
2018-07-19T16:54:31.925Z,29.07
2018-07-19T16:57:01.063Z,28.66
2018-07-19T16:59:29.630Z,28.30
2018-07-19T17:01:58.912Z,28.05
2018-07-19T17:04:27.328Z,27.87
2018-07-19T17:06:55.901Z,27.64
2018-07-19T17:09:24.695Z,27.55
2018-07-19T17:11:54.371Z,27.51
2018-07-19T17:14:23.540Z,27.43
2018-07-19T17:16:52.565Z,27.46
2018-07-19T17:19:21.636Z,27.57
2018-07-19T17:21:52.269Z,27.65
2018-07-19T17:24:24.057Z,27.59
2018-07-19T17:26:54.537Z,27.49
2018-07-19T17:29:23.168Z,27.45
2018-07-19T17:31:52.444Z,27.26
2018-07-19T17:34:22.323Z,27.15
2018-07-19T17:36:51.961Z,27.07
2018-07-19T17:39:21.600Z,26.99
2018-07-19T17:41:50.128Z,26.95
2018-07-19T17:44:18.745Z,26.96
2018-07-19T17:46:47.553Z,26.92
2018-07-19T17:49:16.322Z,26.89
2018-07-19T17:51:45.083Z,26.83
2018-07-19T17:54:15.327Z,26.78
2018-07-19T17:56:44.040Z,26.69
2018-07-19T17:59:13.695Z,26.59
2018-07-19T18:01:43.337Z,26.52
2018-07-19T18:04:12.202Z,26.47
2018-07-19T18:06:40.777Z,26.43
2018-07-19T18:09:10.795Z,26.39
2018-07-19T18:11:40.120Z,26.38
2018-07-19T18:14:11.740Z,26.28
2018-07-19T18:16:42.215Z,26.21
2018-07-19T18:19:10.836Z,26.15
2018-07-19T18:21:40.519Z,26.08
2018-07-19T18:24:09.202Z,26.01
2018-07-19T18:26:38.011Z,25.99
2018-07-19T18:29:07.201Z,25.91
2018-07-19T18:31:35.843Z,25.88
2018-07-19T18:34:05.004Z,25.82
2018-07-19T18:36:33.623Z,25.75
2018-07-19T18:39:03.191Z,25.64
2018-07-19T18:41:32.188Z,25.60
2018-07-19T18:44:01.956Z,25.53
2018-07-19T18:46:30.552Z,25.49
2018-07-19T18:49:00.292Z,25.46
2018-07-19T18:51:30.431Z,25.41
2018-07-19T18:53:59.702Z,25.36
2018-07-19T18:56:28.298Z,25.28
2018-07-19T18:58:56.931Z,25.25
2018-07-19T19:01:25.797Z,25.22
2018-07-19T19:03:55.355Z,25.18
2018-07-19T19:06:24.262Z,25.16
2018-07-19T19:08:52.956Z,25.09
2018-07-19T19:11:22.260Z,25.03
2018-07-19T19:13:51.877Z,24.95
2018-07-19T19:16:21.232Z,24.88
2018-07-19T19:18:50.432Z,24.83
2018-07-19T19:21:19.616Z,24.80
2018-07-19T19:23:48.377Z,24.71
2018-07-19T19:26:18.457Z,24.64
2018-07-19T19:28:47.952Z,24.56
2018-07-19T19:31:17.884Z,24.50
2018-07-19T19:33:47.637Z,24.43
2018-07-19T19:36:17.719Z,24.37
2018-07-19T19:38:46.280Z,24.29
2018-07-19T19:41:15.842Z,24.23
2018-07-19T19:43:44.689Z,24.19
2018-07-19T19:46:14.179Z,24.11
2018-07-19T19:48:47.165Z,24.05
2018-07-19T19:51:16.242Z,23.98
2018-07-19T19:53:46.367Z,23.94
2018-07-19T19:56:14.961Z,23.86
2018-07-19T19:58:44.629Z,23.84
2018-07-19T20:01:13.343Z,23.81
2018-07-19T20:03:42.353Z,23.71
2018-07-19T20:06:10.992Z,23.66
2018-07-19T20:08:40.311Z,23.59
2018-07-19T20:11:09.010Z,23.50
2018-07-19T20:13:37.647Z,23.42
2018-07-19T20:16:44.664Z,23.39
2018-07-19T20:19:38.661Z,23.31
2018-07-19T20:33:34.302Z,23.17
2018-07-19T20:36:03.305Z,23.13
2018-07-19T20:38:32.532Z,23.08
2018-07-19T20:41:01.098Z,23.07
2018-07-19T20:43:29.986Z,23.08
2018-07-19T20:45:58.866Z,23.02
2018-07-19T20:48:27.487Z,22.99
2018-07-19T20:50:56.079Z,22.93
2018-07-19T20:53:27.017Z,22.86
2018-07-19T20:55:55.562Z,22.82
2018-07-19T20:58:24.672Z,22.78
2018-07-19T21:00:54.298Z,22.75
2018-07-19T21:03:25.318Z,22.72
2018-07-19T21:05:58.977Z,22.69
2018-07-19T21:08:28.476Z,22.69
2018-07-19T21:11:00.342Z,22.64
2018-07-19T21:13:29.976Z,22.60
2018-07-19T21:15:59.541Z,22.58
2018-07-19T21:18:28.001Z,22.54
2018-07-19T21:20:56.969Z,22.50
2018-07-19T21:23:26.779Z,22.46
2018-07-19T21:25:56.890Z,22.42
2018-07-19T21:28:25.996Z,22.38
2018-07-19T21:30:55.357Z,22.33
2018-07-19T21:33:24.482Z,22.29
2018-07-19T21:35:54.255Z,22.25
2018-07-19T21:38:22.749Z,22.21
2018-07-19T21:40:51.564Z,22.20
2018-07-19T21:43:20.953Z,22.15
2018-07-19T21:45:49.496Z,22.17
2018-07-19T21:48:18.076Z,22.16
2018-07-19T21:50:46.687Z,22.12
2018-07-19T21:53:15.516Z,22.06
2018-07-19T21:55:44.094Z,22.06
2018-07-19T21:58:13.317Z,22.02
2018-07-19T22:00:47.210Z,22.01
2018-07-19T22:03:15.767Z,21.97
2018-07-19T22:05:45.240Z,21.93
2018-07-19T22:08:13.771Z,21.93
2018-07-19T22:10:43.241Z,21.90
2018-07-19T22:13:12.080Z,21.84
2018-07-19T22:15:44.754Z,21.80
2018-07-19T22:18:14.101Z,21.80
2018-07-19T22:20:43.724Z,21.83
2018-07-19T22:23:12.396Z,21.85
2018-07-19T22:25:41.039Z,21.78
2018-07-19T22:28:10.723Z,21.73
2018-07-19T22:30:40.969Z,21.65
2018-07-19T22:33:10.312Z,21.60
2018-07-19T22:35:39.279Z,21.54
2018-07-19T22:38:08.725Z,21.49
2018-07-19T22:40:37.273Z,21.44
2018-07-19T22:43:05.960Z,21.40
2018-07-19T22:45:34.478Z,21.34
2018-07-19T22:48:04.627Z,21.27
2018-07-19T22:50:34.357Z,21.25
2018-07-19T22:53:03.308Z,21.26
2018-07-19T22:55:31.768Z,21.27
2018-07-19T22:58:00.478Z,21.28
2018-07-19T23:00:29.017Z,21.26
2018-07-19T23:02:57.906Z,21.24
2018-07-19T23:05:27.099Z,21.22
2018-07-19T23:07:55.780Z,21.19
2018-07-19T23:10:24.471Z,21.16
2018-07-19T23:12:53.581Z,21.16
2018-07-19T23:15:22.157Z,21.14
2018-07-19T23:17:50.747Z,21.12
2018-07-19T23:20:19.339Z,21.14
2018-07-19T23:22:55.434Z,21.13
2018-07-19T23:25:24.783Z,21.13
2018-07-19T23:27:53.978Z,21.13
2018-07-19T23:30:25.537Z,21.15
2018-07-19T23:32:54.230Z,21.09
2018-07-19T23:35:24.771Z,21.06
2018-07-19T23:37:55.016Z,21.05
2018-07-19T23:40:27.091Z,21.07
2018-07-19T23:43:58.974Z,21.04
2018-07-19T23:46:31.991Z,20.97
2018-07-19T23:49:07.329Z,20.87
2018-07-19T23:51:37.470Z,20.73
2018-07-19T23:54:06.182Z,20.65
2018-07-19T23:56:35.268Z,20.56
2018-07-19T23:59:04.271Z,20.50
